sensor_id;sensor_type;location;lat;lon;timestamp;temperature;humidity
8945;DHT22;4507;40.232;29.132;2023-01-26T00:01:19;5.30;92.50
8945;DHT22;4507;40.232;29.132;2023-01-26T00:03:49;5.30;92.60
8945;DHT22;4507;40.232;29.132;2023-01-26T00:06:21;5.20;92.60
8945;DHT22;4507;40.232;29.132;2023-01-26T00:08:51;5.20;92.80
8945;DHT22;4507;40.232;29.132;2023-01-26T00:11:22;5.20;93.00
8945;DHT22;4507;40.232;29.132;2023-01-26T00:13:53;5.20;93.10
8945;DHT22;4507;40.232;29.132;2023-01-26T00:16:23;5.10;93.30
8945;DHT22;4507;40.232;29.132;2023-01-26T00:18:52;5.10;93.40
8945;DHT22;4507;40.232;29.132;2023-01-26T00:21:23;5.10;93.60
8945;DHT22;4507;40.232;29.132;2023-01-26T00:23:54;5.10;93.70
8945;DHT22;4507;40.232;29.132;2023-01-26T00:26:25;5.10;93.80
8945;DHT22;4507;40.232;29.132;2023-01-26T00:28:54;5.10;93.90
8945;DHT22;4507;40.232;29.132;2023-01-26T00:31:25;5.10;93.90
8945;DHT22;4507;40.232;29.132;2023-01-26T00:33:55;5.10;94.00
8945;DHT22;4507;40.232;29.132;2023-01-26T00:36:26;5.10;94.10
8945;DHT22;4507;40.232;29.132;2023-01-26T00:38:55;5.10;94.10
8945;DHT22;4507;40.232;29.132;2023-01-26T00:41:25;5.10;94.20
8945;DHT22;4507;40.232;29.132;2023-01-26T00:44:11;5.10;94.30
8945;DHT22;4507;40.232;29.132;2023-01-26T00:46:40;5.10;94.90
8945;DHT22;4507;40.232;29.132;2023-01-26T00:49:09;5.10;95.40
8945;DHT22;4507;40.232;29.132;2023-01-26T00:51:39;5.20;95.80
8945;DHT22;4507;40.232;29.132;2023-01-26T00:54:08;5.40;95.90
8945;DHT22;4507;40.232;29.132;2023-01-26T00:56:38;5.50;95.80
8945;DHT22;4507;40.232;29.132;2023-01-26T00:59:07;5.60;95.70
8945;DHT22;4507;40.232;29.132;2023-01-26T01:01:36;5.70;95.50
8945;DHT22;4507;40.232;29.132;2023-01-26T01:04:05;5.80;95.40
8945;DHT22;4507;40.232;29.132;2023-01-26T01:06:35;5.90;95.30
8945;DHT22;4507;40.232;29.132;2023-01-26T01:09:05;6.00;95.20
8945;DHT22;4507;40.232;29.132;2023-01-26T01:11:35;6.00;95.10
8945;DHT22;4507;40.232;29.132;2023-01-26T01:14:04;6.10;94.80
8945;DHT22;4507;40.232;29.132;2023-01-26T01:16:33;6.10;94.50
8945;DHT22;4507;40.232;29.132;2023-01-26T01:19:02;6.00;94.10
8945;DHT22;4507;40.232;29.132;2023-01-26T01:21:35;6.00;93.90
8945;DHT22;4507;40.232;29.132;2023-01-26T01:24:06;5.90;93.60
8945;DHT22;4507;40.232;29.132;2023-01-26T01:26:36;5.80;93.60
8945;DHT22;4507;40.232;29.132;2023-01-26T01:29:06;5.70;93.60
8945;DHT22;4507;40.232;29.132;2023-01-26T01:31:36;5.70;93.70
8945;DHT22;4507;40.232;29.132;2023-01-26T01:34:05;5.60;93.60
8945;DHT22;4507;40.232;29.132;2023-01-26T01:36:34;5.50;93.70
8945;DHT22;4507;40.232;29.132;2023-01-26T01:39:05;5.50;93.80
8945;DHT22;4507;40.232;29.132;2023-01-26T01:41:34;5.40;93.80
8945;DHT22;4507;40.232;29.132;2023-01-26T01:44:14;5.30;93.80
8945;DHT22;4507;40.232;29.132;2023-01-26T01:46:48;5.30;94.00
8945;DHT22;4507;40.232;29.132;2023-01-26T01:49:21;5.20;94.00
8945;DHT22;4507;40.232;29.132;2023-01-26T01:51:54;5.20;94.10
8945;DHT22;4507;40.232;29.132;2023-01-26T01:54:31;5.10;94.00
8945;DHT22;4507;40.232;29.132;2023-01-26T01:57:05;5.10;94.10
8945;DHT22;4507;40.232;29.132;2023-01-26T01:59:44;5.00;94.20
8945;DHT22;4507;40.232;29.132;2023-01-26T02:02:15;5.00;94.20
8945;DHT22;4507;40.232;29.132;2023-01-26T02:04:46;4.50;94.10
8945;DHT22;4507;40.232;29.132;2023-01-26T02:07:15;4.90;94.40
8945;DHT22;4507;40.232;29.132;2023-01-26T02:09:46;4.90;94.60
8945;DHT22;4507;40.232;29.132;2023-01-26T02:12:33;4.80;94.60
8945;DHT22;4507;40.232;29.132;2023-01-26T02:15:04;4.80;94.80
8945;DHT22;4507;40.232;29.132;2023-01-26T02:17:33;4.80;94.90
8945;DHT22;4507;40.232;29.132;2023-01-26T02:20:07;4.80;95.00
8945;DHT22;4507;40.232;29.132;2023-01-26T02:22:44;4.80;95.00
8945;DHT22;4507;40.232;29.132;2023-01-26T02:25:26;4.80;95.10
8945;DHT22;4507;40.232;29.132;2023-01-26T02:28:01;4.80;95.10
8945;DHT22;4507;40.232;29.132;2023-01-26T02:30:30;4.80;95.10
8945;DHT22;4507;40.232;29.132;2023-01-26T02:33:00;4.80;95.10
8945;DHT22;4507;40.232;29.132;2023-01-26T02:35:29;4.70;95.10
8945;DHT22;4507;40.232;29.132;2023-01-26T02:38:00;4.70;95.10
8945;DHT22;4507;40.232;29.132;2023-01-26T02:40:35;4.70;95.10
8945;DHT22;4507;40.232;29.132;2023-01-26T02:43:07;4.70;95.10
8945;DHT22;4507;40.232;29.132;2023-01-26T02:45:37;4.60;95.10
8945;DHT22;4507;40.232;29.132;2023-01-26T02:48:08;4.60;95.10
8945;DHT22;4507;40.232;29.132;2023-01-26T02:50:37;4.60;95.20
8945;DHT22;4507;40.232;29.132;2023-01-26T02:53:04;4.60;95.30
8945;DHT22;4507;40.232;29.132;2023-01-26T02:55:34;4.60;95.40
8945;DHT22;4507;40.232;29.132;2023-01-26T02:58:04;4.60;95.50
8945;DHT22;4507;40.232;29.132;2023-01-26T03:00:36;4.60;95.70
8945;DHT22;4507;40.232;29.132;2023-01-26T03:03:12;4.60;96.00
8945;DHT22;4507;40.232;29.132;2023-01-26T03:05:42;4.60;96.20
8945;DHT22;4507;40.232;29.132;2023-01-26T03:08:12;4.70;96.30
8945;DHT22;4507;40.232;29.132;2023-01-26T03:10:41;4.80;96.30
8945;DHT22;4507;40.232;29.132;2023-01-26T03:13:10;4.90;96.20
8945;DHT22;4507;40.232;29.132;2023-01-26T03:15:41;5.00;95.90
8945;DHT22;4507;40.232;29.132;2023-01-26T03:18:15;5.10;95.50
8945;DHT22;4507;40.232;29.132;2023-01-26T03:21:03;5.20;95.10
8945;DHT22;4507;40.232;29.132;2023-01-26T03:23:55;5.40;94.70
8945;DHT22;4507;40.232;29.132;2023-01-26T03:26:42;5.40;94.10
8945;DHT22;4507;40.232;29.132;2023-01-26T03:29:30;5.50;93.70
8945;DHT22;4507;40.232;29.132;2023-01-26T03:32:02;5.60;93.20
8945;DHT22;4507;40.232;29.132;2023-01-26T03:34:32;5.60;92.70
8945;DHT22;4507;40.232;29.132;2023-01-26T03:37:03;5.60;92.40
8945;DHT22;4507;40.232;29.132;2023-01-26T03:39:48;5.40;92.10
8945;DHT22;4507;40.232;29.132;2023-01-26T03:42:54;5.70;91.80
8945;DHT22;4507;40.232;29.132;2023-01-26T03:45:40;5.80;91.40
8945;DHT22;4507;40.232;29.132;2023-01-26T03:48:31;5.70;91.10
8945;DHT22;4507;40.232;29.132;2023-01-26T03:51:17;5.70;90.90
8945;DHT22;4507;40.232;29.132;2023-01-26T03:54:03;5.70;90.70
8945;DHT22;4507;40.232;29.132;2023-01-26T03:57:08;5.70;90.50
8945;DHT22;4507;40.232;29.132;2023-01-26T03:59:37;5.70;90.50
8945;DHT22;4507;40.232;29.132;2023-01-26T04:02:11;5.70;90.40
8945;DHT22;4507;40.232;29.132;2023-01-26T04:05:01;5.70;90.30
8945;DHT22;4507;40.232;29.132;2023-01-26T04:07:52;5.70;90.20
8945;DHT22;4507;40.232;29.132;2023-01-26T04:10:39;5.70;90.10
8945;DHT22;4507;40.232;29.132;2023-01-26T04:13:08;5.60;90.00
8945;DHT22;4507;40.232;29.132;2023-01-26T04:16:00;5.70;89.80
8945;DHT22;4507;40.232;29.132;2023-01-26T04:18:46;5.60;89.60
8945;DHT22;4507;40.232;29.132;2023-01-26T04:21:34;5.60;89.50
8945;DHT22;4507;40.232;29.132;2023-01-26T04:24:12;5.60;89.40
8945;DHT22;4507;40.232;29.132;2023-01-26T04:26:44;5.60;89.30
8945;DHT22;4507;40.232;29.132;2023-01-26T04:29:19;5.50;89.20
8945;DHT22;4507;40.232;29.132;2023-01-26T04:31:50;5.50;89.10
8945;DHT22;4507;40.232;29.132;2023-01-26T04:34:21;5.50;89.00
8945;DHT22;4507;40.232;29.132;2023-01-26T04:36:52;5.50;88.80
8945;DHT22;4507;40.232;29.132;2023-01-26T04:39:24;5.50;88.80
8945;DHT22;4507;40.232;29.132;2023-01-26T04:41:55;5.50;88.80
8945;DHT22;4507;40.232;29.132;2023-01-26T04:44:24;5.50;88.80
8945;DHT22;4507;40.232;29.132;2023-01-26T04:46:53;5.40;88.70
8945;DHT22;4507;40.232;29.132;2023-01-26T04:49:22;5.50;88.90
8945;DHT22;4507;40.232;29.132;2023-01-26T04:51:53;5.50;89.00
8945;DHT22;4507;40.232;29.132;2023-01-26T04:54:22;5.50;89.30
8945;DHT22;4507;40.232;29.132;2023-01-26T04:56:52;5.50;89.20
8945;DHT22;4507;40.232;29.132;2023-01-26T04:59:21;5.50;89.00
8945;DHT22;4507;40.232;29.132;2023-01-26T05:01:53;5.50;88.60
8945;DHT22;4507;40.232;29.132;2023-01-26T05:04:23;5.50;88.40
8945;DHT22;4507;40.232;29.132;2023-01-26T05:06:54;5.40;88.20
8945;DHT22;4507;40.232;29.132;2023-01-26T05:09:25;5.50;88.30
8945;DHT22;4507;40.232;29.132;2023-01-26T05:12:11;5.40;88.20
8945;DHT22;4507;40.232;29.132;2023-01-26T05:15:20;5.40;88.10
8945;DHT22;4507;40.232;29.132;2023-01-26T05:18:13;5.40;88.10
8945;DHT22;4507;40.232;29.132;2023-01-26T05:21:09;5.40;88.00
8945;DHT22;4507;40.232;29.132;2023-01-26T05:23:45;5.40;88.10
8945;DHT22;4507;40.232;29.132;2023-01-26T05:26:38;5.40;88.50
8945;DHT22;4507;40.232;29.132;2023-01-26T05:29:12;5.40;88.70
8945;DHT22;4507;40.232;29.132;2023-01-26T05:31:41;5.40;89.10
8945;DHT22;4507;40.232;29.132;2023-01-26T05:34:10;5.40;89.20
8945;DHT22;4507;40.232;29.132;2023-01-26T05:36:39;5.50;89.50
8945;DHT22;4507;40.232;29.132;2023-01-26T05:39:11;5.50;89.60
8945;DHT22;4507;40.232;29.132;2023-01-26T05:41:40;5.50;89.70
8945;DHT22;4507;40.232;29.132;2023-01-26T05:44:25;5.50;89.70
8945;DHT22;4507;40.232;29.132;2023-01-26T05:47:01;5.50;89.80
8945;DHT22;4507;40.232;29.132;2023-01-26T05:49:30;5.60;89.90
8945;DHT22;4507;40.232;29.132;2023-01-26T05:52:00;5.60;90.00
8945;DHT22;4507;40.232;29.132;2023-01-26T05:54:31;5.60;90.00
8945;DHT22;4507;40.232;29.132;2023-01-26T05:56:59;5.60;89.80
8945;DHT22;4507;40.232;29.132;2023-01-26T05:59:30;5.70;89.90
8945;DHT22;4507;40.232;29.132;2023-01-26T06:01:59;5.70;90.00
8945;DHT22;4507;40.232;29.132;2023-01-26T06:04:29;5.70;89.90
8945;DHT22;4507;40.232;29.132;2023-01-26T06:06:59;5.80;89.00
8945;DHT22;4507;40.232;29.132;2023-01-26T06:09:35;5.80;88.50
8945;DHT22;4507;40.232;29.132;2023-01-26T06:12:22;5.90;88.30
8945;DHT22;4507;40.232;29.132;2023-01-26T06:14:54;6.00;88.20
8945;DHT22;4507;40.232;29.132;2023-01-26T06:17:32;6.10;87.80
8945;DHT22;4507;40.232;29.132;2023-01-26T06:20:04;6.20;86.80
8945;DHT22;4507;40.232;29.132;2023-01-26T06:22:34;6.30;86.00
8945;DHT22;4507;40.232;29.132;2023-01-26T06:25:05;6.40;85.30
8945;DHT22;4507;40.232;29.132;2023-01-26T06:27:34;6.40;84.60
8945;DHT22;4507;40.232;29.132;2023-01-26T06:30:23;6.50;84.70
8945;DHT22;4507;40.232;29.132;2023-01-26T06:32:56;6.60;84.10
8945;DHT22;4507;40.232;29.132;2023-01-26T06:35:28;6.60;83.70
8945;DHT22;4507;40.232;29.132;2023-01-26T06:38:00;6.60;83.30
8945;DHT22;4507;40.232;29.132;2023-01-26T06:40:31;6.70;83.60
8945;DHT22;4507;40.232;29.132;2023-01-26T06:43:18;6.70;83.80
8945;DHT22;4507;40.232;29.132;2023-01-26T06:45:47;6.80;83.60
8945;DHT22;4507;40.232;29.132;2023-01-26T06:48:17;6.90;83.50
8945;DHT22;4507;40.232;29.132;2023-01-26T06:50:47;7.00;83.00
8945;DHT22;4507;40.232;29.132;2023-01-26T06:53:28;7.10;83.00
8945;DHT22;4507;40.232;29.132;2023-01-26T06:56:30;7.20;82.00
8945;DHT22;4507;40.232;29.132;2023-01-26T06:59:35;7.20;81.30
8945;DHT22;4507;40.232;29.132;2023-01-26T07:02:23;7.30;80.80
8945;DHT22;4507;40.232;29.132;2023-01-26T07:05:10;7.40;80.10
8945;DHT22;4507;40.232;29.132;2023-01-26T07:07:39;7.40;79.70
8945;DHT22;4507;40.232;29.132;2023-01-26T07:10:09;7.40;79.10
8945;DHT22;4507;40.232;29.132;2023-01-26T07:12:42;7.50;79.00
8945;DHT22;4507;40.232;29.132;2023-01-26T07:15:12;7.50;78.60
8945;DHT22;4507;40.232;29.132;2023-01-26T07:17:41;7.60;78.50
8945;DHT22;4507;40.232;29.132;2023-01-26T07:20:10;7.70;78.50
8945;DHT22;4507;40.232;29.132;2023-01-26T07:22:39;7.70;78.40
8945;DHT22;4507;40.232;29.132;2023-01-26T07:25:09;7.80;78.60
8945;DHT22;4507;40.232;29.132;2023-01-26T07:27:38;7.90;78.00
8945;DHT22;4507;40.232;29.132;2023-01-26T07:30:10;8.00;77.20
8945;DHT22;4507;40.232;29.132;2023-01-26T07:32:40;8.10;76.60
8945;DHT22;4507;40.232;29.132;2023-01-26T07:35:09;8.20;77.50
8945;DHT22;4507;40.232;29.132;2023-01-26T07:37:38;8.40;77.70
8945;DHT22;4507;40.232;29.132;2023-01-26T07:40:09;8.60;78.10
8945;DHT22;4507;40.232;29.132;2023-01-26T07:42:57;8.90;77.80
8945;DHT22;4507;40.232;29.132;2023-01-26T07:45:51;9.20;75.80
8945;DHT22;4507;40.232;29.132;2023-01-26T07:48:21;9.50;73.30
8945;DHT22;4507;40.232;29.132;2023-01-26T07:50:51;9.70;71.30
8945;DHT22;4507;40.232;29.132;2023-01-26T07:53:20;9.80;69.20
8945;DHT22;4507;40.232;29.132;2023-01-26T07:55:49;9.90;68.70
8945;DHT22;4507;40.232;29.132;2023-01-26T07:58:18;10.00;69.00
8945;DHT22;4507;40.232;29.132;2023-01-26T08:00:49;10.10;70.00
8945;DHT22;4507;40.232;29.132;2023-01-26T08:03:18;10.30;68.70
8945;DHT22;4507;40.232;29.132;2023-01-26T08:05:47;10.60;65.50
8945;DHT22;4507;40.232;29.132;2023-01-26T08:08:16;10.70;64.30
8945;DHT22;4507;40.232;29.132;2023-01-26T08:10:45;10.70;62.80
8945;DHT22;4507;40.232;29.132;2023-01-26T08:13:14;10.60;61.80
8945;DHT22;4507;40.232;29.132;2023-01-26T08:16:03;10.50;61.40
8945;DHT22;4507;40.232;29.132;2023-01-26T08:18:33;10.30;61.40
8945;DHT22;4507;40.232;29.132;2023-01-26T08:21:03;10.10;61.20
8945;DHT22;4507;40.232;29.132;2023-01-26T08:23:32;10.00;61.50
8945;DHT22;4507;40.232;29.132;2023-01-26T08:26:01;9.80;64.00
8945;DHT22;4507;40.232;29.132;2023-01-26T08:28:31;9.70;63.80
8945;DHT22;4507;40.232;29.132;2023-01-26T08:31:05;9.60;64.20
8945;DHT22;4507;40.232;29.132;2023-01-26T08:33:34;9.50;65.00
8945;DHT22;4507;40.232;29.132;2023-01-26T08:36:05;9.40;65.90
8945;DHT22;4507;40.232;29.132;2023-01-26T08:38:35;9.50;66.10
8945;DHT22;4507;40.232;29.132;2023-01-26T08:41:04;9.50;66.20
8945;DHT22;4507;40.232;29.132;2023-01-26T08:43:33;9.50;66.10
8945;DHT22;4507;40.232;29.132;2023-01-26T08:46:04;9.60;66.20
8945;DHT22;4507;40.232;29.132;2023-01-26T08:48:34;9.60;66.20
8945;DHT22;4507;40.232;29.132;2023-01-26T08:51:05;9.60;66.30
8945;DHT22;4507;40.232;29.132;2023-01-26T08:53:36;9.70;66.00
8945;DHT22;4507;40.232;29.132;2023-01-26T08:56:07;9.80;65.70
8945;DHT22;4507;40.232;29.132;2023-01-26T08:58:36;9.80;65.30
8945;DHT22;4507;40.232;29.132;2023-01-26T09:01:09;9.80;65.30
8945;DHT22;4507;40.232;29.132;2023-01-26T09:03:39;9.90;65.90
8945;DHT22;4507;40.232;29.132;2023-01-26T09:06:10;10.00;66.10
8945;DHT22;4507;40.232;29.132;2023-01-26T09:08:40;10.30;66.30
8945;DHT22;4507;40.232;29.132;2023-01-26T09:11:10;10.70;66.50
8945;DHT22;4507;40.232;29.132;2023-01-26T09:13:39;11.20;65.20
8945;DHT22;4507;40.232;29.132;2023-01-26T09:16:15;11.60;63.20
8945;DHT22;4507;40.232;29.132;2023-01-26T09:18:48;11.90;61.50
8945;DHT22;4507;40.232;29.132;2023-01-26T09:21:18;12.40;59.90
8945;DHT22;4507;40.232;29.132;2023-01-26T09:23:47;12.70;60.60
8945;DHT22;4507;40.232;29.132;2023-01-26T09:26:16;12.90;58.00
8945;DHT22;4507;40.232;29.132;2023-01-26T09:28:49;12.90;56.70
8945;DHT22;4507;40.232;29.132;2023-01-26T09:31:19;12.90;57.10
8945;DHT22;4507;40.232;29.132;2023-01-26T09:33:49;12.90;56.10
8945;DHT22;4507;40.232;29.132;2023-01-26T09:36:19;12.90;56.00
8945;DHT22;4507;40.232;29.132;2023-01-26T09:38:48;12.90;56.00
8945;DHT22;4507;40.232;29.132;2023-01-26T09:41:28;13.00;56.20
8945;DHT22;4507;40.232;29.132;2023-01-26T09:44:04;13.00;56.20
8945;DHT22;4507;40.232;29.132;2023-01-26T09:46:51;13.20;55.90
8945;DHT22;4507;40.232;29.132;2023-01-26T09:49:25;13.30;55.40
8945;DHT22;4507;40.232;29.132;2023-01-26T09:52:02;13.40;54.50
8945;DHT22;4507;40.232;29.132;2023-01-26T09:54:36;13.30;53.70
8945;DHT22;4507;40.232;29.132;2023-01-26T09:57:11;13.10;53.40
8945;DHT22;4507;40.232;29.132;2023-01-26T09:59:45;12.90;53.40
8945;DHT22;4507;40.232;29.132;2023-01-26T10:02:27;12.60;53.60
8945;DHT22;4507;40.232;29.132;2023-01-26T10:05:02;12.30;54.30
8945;DHT22;4507;40.232;29.132;2023-01-26T10:07:32;12.00;54.80
8945;DHT22;4507;40.232;29.132;2023-01-26T10:10:03;11.80;55.40
8945;DHT22;4507;40.232;29.132;2023-01-26T10:12:34;11.50;55.90
8945;DHT22;4507;40.232;29.132;2023-01-26T10:15:06;11.40;56.50
8945;DHT22;4507;40.232;29.132;2023-01-26T10:17:41;11.20;56.80
8945;DHT22;4507;40.232;29.132;2023-01-26T10:20:21;11.10;57.50
8945;DHT22;4507;40.232;29.132;2023-01-26T10:22:53;11.10;58.50
8945;DHT22;4507;40.232;29.132;2023-01-26T10:25:44;11.20;58.60
8945;DHT22;4507;40.232;29.132;2023-01-26T10:28:15;11.30;58.40
8945;DHT22;4507;40.232;29.132;2023-01-26T10:30:46;11.40;58.40
8945;DHT22;4507;40.232;29.132;2023-01-26T10:33:24;11.50;58.50
8945;DHT22;4507;40.232;29.132;2023-01-26T10:35:55;11.60;58.00
8945;DHT22;4507;40.232;29.132;2023-01-26T10:38:42;11.70;57.70
8945;DHT22;4507;40.232;29.132;2023-01-26T10:41:27;11.80;57.70
8945;DHT22;4507;40.232;29.132;2023-01-26T10:43:58;11.90;58.30
8945;DHT22;4507;40.232;29.132;2023-01-26T10:46:31;12.00;58.00
8945;DHT22;4507;40.232;29.132;2023-01-26T10:49:12;12.20;57.50
8945;DHT22;4507;40.232;29.132;2023-01-26T10:51:43;12.30;58.20
8945;DHT22;4507;40.232;29.132;2023-01-26T10:54:17;12.40;57.40
8945;DHT22;4507;40.232;29.132;2023-01-26T10:56:49;12.40;57.60
8945;DHT22;4507;40.232;29.132;2023-01-26T10:59:26;12.50;57.40
8945;DHT22;4507;40.232;29.132;2023-01-26T11:01:58;12.70;57.20
8945;DHT22;4507;40.232;29.132;2023-01-26T11:04:29;12.90;57.20
8945;DHT22;4507;40.232;29.132;2023-01-26T11:07:18;13.00;56.60
8945;DHT22;4507;40.232;29.132;2023-01-26T11:09:52;13.20;55.30
8945;DHT22;4507;40.232;29.132;2023-01-26T11:12:24;13.10;54.50
8945;DHT22;4507;40.232;29.132;2023-01-26T11:15:01;13.00;54.40
8945;DHT22;4507;40.232;29.132;2023-01-26T11:17:51;12.90;54.50
8945;DHT22;4507;40.232;29.132;2023-01-26T11:20:43;12.80;55.10
8945;DHT22;4507;40.232;29.132;2023-01-26T11:23:21;12.70;55.50
8945;DHT22;4507;40.232;29.132;2023-01-26T11:26:09;12.70;55.50
8945;DHT22;4507;40.232;29.132;2023-01-26T11:28:48;12.80;55.50
8945;DHT22;4507;40.232;29.132;2023-01-26T11:31:29;12.80;55.40
8945;DHT22;4507;40.232;29.132;2023-01-26T11:34:07;12.80;55.10
8945;DHT22;4507;40.232;29.132;2023-01-26T11:36:48;12.80;55.00
8945;DHT22;4507;40.232;29.132;2023-01-26T11:39:25;12.80;55.30
8945;DHT22;4507;40.232;29.132;2023-01-26T11:42:06;12.80;55.30
8945;DHT22;4507;40.232;29.132;2023-01-26T11:47:44;12.80;55.50
8945;DHT22;4507;40.232;29.132;2023-01-26T11:50:32;12.90;56.00
8945;DHT22;4507;40.232;29.132;2023-01-26T11:56:15;13.00;55.60
8945;DHT22;4507;40.232;29.132;2023-01-26T11:58:52;13.00;55.00
8945;DHT22;4507;40.232;29.132;2023-01-26T12:01:27;13.10;55.30
8945;DHT22;4507;40.232;29.132;2023-01-26T12:03:57;13.20;55.40
8945;DHT22;4507;40.232;29.132;2023-01-26T12:06:33;13.30;55.30
8945;DHT22;4507;40.232;29.132;2023-01-26T12:09:10;13.30;54.80
8945;DHT22;4507;40.232;29.132;2023-01-26T12:11:50;13.30;54.70
8945;DHT22;4507;40.232;29.132;2023-01-26T12:14:24;13.30;54.60
8945;DHT22;4507;40.232;29.132;2023-01-26T12:17:08;13.40;55.00
8945;DHT22;4507;40.232;29.132;2023-01-26T12:19:48;13.40;55.00
8945;DHT22;4507;40.232;29.132;2023-01-26T12:22:25;13.40;54.30
8945;DHT22;4507;40.232;29.132;2023-01-26T12:25:04;13.40;54.20
8945;DHT22;4507;40.232;29.132;2023-01-26T12:27:51;13.40;54.30
8945;DHT22;4507;40.232;29.132;2023-01-26T12:30:36;13.40;54.60
8945;DHT22;4507;40.232;29.132;2023-01-26T12:33:09;13.40;54.40
8945;DHT22;4507;40.232;29.132;2023-01-26T12:35:57;13.40;54.30
8945;DHT22;4507;40.232;29.132;2023-01-26T12:38:39;13.40;54.80
8945;DHT22;4507;40.232;29.132;2023-01-26T12:41:15;13.40;54.20
8945;DHT22;4507;40.232;29.132;2023-01-26T12:43:56;13.30;54.10
8945;DHT22;4507;40.232;29.132;2023-01-26T12:46:30;13.30;54.50
8945;DHT22;4507;40.232;29.132;2023-01-26T12:49:02;13.30;54.60
8945;DHT22;4507;40.232;29.132;2023-01-26T12:51:38;13.30;54.60
8945;DHT22;4507;40.232;29.132;2023-01-26T12:54:15;13.30;54.60
8945;DHT22;4507;40.232;29.132;2023-01-26T12:56:50;13.30;54.70
8945;DHT22;4507;40.232;29.132;2023-01-26T12:59:25;13.30;54.30
8945;DHT22;4507;40.232;29.132;2023-01-26T13:02:26;13.30;54.50
8945;DHT22;4507;40.232;29.132;2023-01-26T13:05:25;13.30;54.60
8945;DHT22;4507;40.232;29.132;2023-01-26T13:07:54;13.30;54.50
8945;DHT22;4507;40.232;29.132;2023-01-26T13:10:29;13.30;54.60
8945;DHT22;4507;40.232;29.132;2023-01-26T13:13:31;13.30;54.70
8945;DHT22;4507;40.232;29.132;2023-01-26T13:16:31;13.30;54.50
8945;DHT22;4507;40.232;29.132;2023-01-26T13:19:01;13.30;54.30
8945;DHT22;4507;40.232;29.132;2023-01-26T13:21:42;13.30;54.30
8945;DHT22;4507;40.232;29.132;2023-01-26T13:24:41;13.20;54.60
8945;DHT22;4507;40.232;29.132;2023-01-26T13:27:27;13.20;54.80
8945;DHT22;4507;40.232;29.132;2023-01-26T13:29:58;13.20;54.60
8945;DHT22;4507;40.232;29.132;2023-01-26T13:33:01;13.20;54.80
8945;DHT22;4507;40.232;29.132;2023-01-26T13:35:33;13.20;54.80
8945;DHT22;4507;40.232;29.132;2023-01-26T13:38:10;13.10;54.70
8945;DHT22;4507;40.232;29.132;2023-01-26T13:40:44;13.10;54.60
8945;DHT22;4507;40.232;29.132;2023-01-26T13:43:19;13.10;54.60
8945;DHT22;4507;40.232;29.132;2023-01-26T13:46:07;13.10;55.10
8945;DHT22;4507;40.232;29.132;2023-01-26T13:48:44;13.10;55.00
8945;DHT22;4507;40.232;29.132;2023-01-26T13:51:16;13.10;55.10
8945;DHT22;4507;40.232;29.132;2023-01-26T13:53:55;13.10;55.00
8945;DHT22;4507;40.232;29.132;2023-01-26T13:56:27;13.10;55.00
8945;DHT22;4507;40.232;29.132;2023-01-26T13:59:17;13.10;55.10
8945;DHT22;4507;40.232;29.132;2023-01-26T14:01:50;13.10;55.10
8945;DHT22;4507;40.232;29.132;2023-01-26T14:04:20;13.10;55.00
8945;DHT22;4507;40.232;29.132;2023-01-26T14:06:54;13.10;55.00
8945;DHT22;4507;40.232;29.132;2023-01-26T14:09:45;13.10;55.00
8945;DHT22;4507;40.232;29.132;2023-01-26T14:12:18;13.10;55.10
8945;DHT22;4507;40.232;29.132;2023-01-26T14:14:51;13.10;55.10
8945;DHT22;4507;40.232;29.132;2023-01-26T14:17:28;13.10;55.00
8945;DHT22;4507;40.232;29.132;2023-01-26T14:19:58;13.20;55.20
8945;DHT22;4507;40.232;29.132;2023-01-26T14:22:30;13.20;55.70
8945;DHT22;4507;40.232;29.132;2023-01-26T14:24:59;13.30;55.00
8945;DHT22;4507;40.232;29.132;2023-01-26T14:27:35;13.30;55.00
8945;DHT22;4507;40.232;29.132;2023-01-26T14:30:20;13.40;55.00
8945;DHT22;4507;40.232;29.132;2023-01-26T14:32:54;13.50;54.80
8945;DHT22;4507;40.232;29.132;2023-01-26T14:35:24;13.60;54.50
8945;DHT22;4507;40.232;29.132;2023-01-26T14:38:04;13.70;54.60
8945;DHT22;4507;40.232;29.132;2023-01-26T14:40:34;13.70;54.10
8945;DHT22;4507;40.232;29.132;2023-01-26T14:43:03;13.80;53.90
8945;DHT22;4507;40.232;29.132;2023-01-26T14:45:33;13.80;53.90
8945;DHT22;4507;40.232;29.132;2023-01-26T14:48:06;13.80;54.60
8945;DHT22;4507;40.232;29.132;2023-01-26T14:50:37;13.80;54.20
8945;DHT22;4507;40.232;29.132;2023-01-26T14:53:16;13.80;54.00
8945;DHT22;4507;40.232;29.132;2023-01-26T14:55:48;13.70;54.10
8945;DHT22;4507;40.232;29.132;2023-01-26T14:58:20;13.70;54.50
8945;DHT22;4507;40.232;29.132;2023-01-26T15:01:09;13.70;54.40
8945;DHT22;4507;40.232;29.132;2023-01-26T15:03:50;13.60;54.50
8945;DHT22;4507;40.232;29.132;2023-01-26T15:06:26;13.60;54.90
8945;DHT22;4507;40.232;29.132;2023-01-26T15:08:58;13.60;55.20
8945;DHT22;4507;40.232;29.132;2023-01-26T15:11:33;13.60;55.00
8945;DHT22;4507;40.232;29.132;2023-01-26T15:14:33;13.60;54.70
8945;DHT22;4507;40.232;29.132;2023-01-26T15:17:03;13.50;54.50
8945;DHT22;4507;40.232;29.132;2023-01-26T15:19:41;13.50;54.50
8945;DHT22;4507;40.232;29.132;2023-01-26T15:22:19;13.40;54.60
8945;DHT22;4507;40.232;29.132;2023-01-26T15:25:00;13.40;55.00
8945;DHT22;4507;40.232;29.132;2023-01-26T15:27:35;13.40;54.90
8945;DHT22;4507;40.232;29.132;2023-01-26T15:30:06;13.30;55.00
8945;DHT22;4507;40.232;29.132;2023-01-26T15:32:39;13.30;55.30
8945;DHT22;4507;40.232;29.132;2023-01-26T15:35:21;13.20;55.20
8945;DHT22;4507;40.232;29.132;2023-01-26T15:37:59;13.20;55.20
8945;DHT22;4507;40.232;29.132;2023-01-26T15:40:29;13.10;55.30
8945;DHT22;4507;40.232;29.132;2023-01-26T15:43:10;13.10;55.40
8945;DHT22;4507;40.232;29.132;2023-01-26T15:45:40;13.10;55.60
8945;DHT22;4507;40.232;29.132;2023-01-26T15:48:10;13.00;55.60
8945;DHT22;4507;40.232;29.132;2023-01-26T15:50:40;13.00;56.20
8945;DHT22;4507;40.232;29.132;2023-01-26T15:53:12;13.00;55.80
8945;DHT22;4507;40.232;29.132;2023-01-26T15:55:42;13.00;55.90
8945;DHT22;4507;40.232;29.132;2023-01-26T15:58:11;13.00;55.70
8945;DHT22;4507;40.232;29.132;2023-01-26T16:00:40;13.10;55.80
8945;DHT22;4507;40.232;29.132;2023-01-26T16:03:13;13.10;55.70
8945;DHT22;4507;40.232;29.132;2023-01-26T16:05:45;13.10;55.80
8945;DHT22;4507;40.232;29.132;2023-01-26T16:08:15;13.10;55.80
8945;DHT22;4507;40.232;29.132;2023-01-26T16:10:45;13.10;55.80
8945;DHT22;4507;40.232;29.132;2023-01-26T16:13:16;13.10;55.60
8945;DHT22;4507;40.232;29.132;2023-01-26T16:15:48;13.10;55.60
8945;DHT22;4507;40.232;29.132;2023-01-26T16:18:18;13.10;55.60
8945;DHT22;4507;40.232;29.132;2023-01-26T16:20:49;13.10;55.60
8945;DHT22;4507;40.232;29.132;2023-01-26T16:23:20;13.10;55.70
8945;DHT22;4507;40.232;29.132;2023-01-26T16:25:50;13.10;55.70
8945;DHT22;4507;40.232;29.132;2023-01-26T16:28:20;13.10;55.60
8945;DHT22;4507;40.232;29.132;2023-01-26T16:30:49;13.20;55.70
8945;DHT22;4507;40.232;29.132;2023-01-26T16:33:19;13.20;55.70
8945;DHT22;4507;40.232;29.132;2023-01-26T16:35:50;13.20;55.40
8945;DHT22;4507;40.232;29.132;2023-01-26T16:38:19;13.20;55.30
8945;DHT22;4507;40.232;29.132;2023-01-26T16:40:48;13.20;55.20
8945;DHT22;4507;40.232;29.132;2023-01-26T16:43:19;13.30;55.30
8945;DHT22;4507;40.232;29.132;2023-01-26T16:45:51;13.30;55.20
8945;DHT22;4507;40.232;29.132;2023-01-26T16:48:21;13.30;55.00
8945;DHT22;4507;40.232;29.132;2023-01-26T16:50:52;13.30;55.00